Time;durP1;ratioP1;P1;durP2;ratioP2;P2;SDS_P1;SDS_P2;PMS_P1;PMS_P2;Temp;Humidity;BMP_temperature;BMP_pressure;BME280_temperature;BME280_humidity;BME280_pressure;Samples;Min_cycle;Max_cycle;Signal;HPM_P1;HPM_P2
2023/01/29 00:00:09;;;;;;;23.17;16.05;;;;;;;;;;5076262;28;20053;-74
2023/01/29 00:02:36;;;;;;;20.50;15.40;;;;;;;;;;5073400;28;20056;-74
2023/01/29 00:05:03;;;;;;;24.08;16.33;;;;;;;;;;5075394;28;20465;-74
2023/01/29 00:07:29;;;;;;;24.00;16.55;;;;;;;;;;5074077;28;20041;-74
2023/01/29 00:09:55;;;;;;;22.60;16.80;;;;;;;;;;5074104;28;20056;-74
2023/01/29 00:12:21;;;;;;;22.52;16.80;;;;;;;;;;5073915;28;20041;-74
2023/01/29 00:14:47;;;;;;;23.13;15.27;;;;;;;;;;5073577;28;20040;-74
2023/01/29 00:17:13;;;;;;;22.42;16.00;;;;;;;;;;5076055;28;20044;-74
2023/01/29 00:19:39;;;;;;;22.70;15.55;;;;;;;;;;5073964;28;20048;-74
2023/01/29 00:22:05;;;;;;;22.38;15.52;;;;;;;;;;5073944;28;20053;-74
2023/01/29 00:24:31;;;;;;;22.45;16.75;;;;;;;;;;5073871;28;20051;-74
2023/01/29 00:26:57;;;;;;;21.10;15.90;;;;;;;;;;5073721;28;20040;-74
2023/01/29 00:29:23;;;;;;;22.40;16.30;;;;;;;;;;5081180;28;20044;-74
2023/01/29 00:31:49;;;;;;;22.73;16.35;;;;;;;;;;5073485;28;20051;-74
2023/01/29 00:34:15;;;;;;;22.50;16.13;;;;;;;;;;5076353;28;20621;-74
2023/01/29 00:36:43;;;;;;;21.45;15.57;;;;;;;;;;5083476;28;20549;-74
2023/01/29 00:39:09;;;;;;;23.70;16.55;;;;;;;;;;5093751;28;20048;-74
2023/01/29 00:47:34;;;;;;;24.40;16.70;;;;;;;;;;5063531;28;20048;-74
2023/01/29 00:50:01;;;;;;;22.70;16.60;;;;;;;;;;5075373;28;20497;-74
2023/01/29 00:52:27;;;;;;;24.58;17.38;;;;;;;;;;5073357;28;20440;-74
2023/01/29 00:54:55;;;;;;;24.20;17.00;;;;;;;;;;5073760;28;20044;-74
2023/01/29 00:57:21;;;;;;;22.23;17.02;;;;;;;;;;5079327;28;20414;-74
2023/01/29 00:59:47;;;;;;;24.20;16.23;;;;;;;;;;5075473;28;20045;-74
2023/01/29 01:05:01;;;;;;;25.58;17.40;;;;;;;;;;5055320;28;20056;-74
2023/01/29 01:07:28;;;;;;;22.75;16.45;;;;;;;;;;5075442;28;20090;-74
2023/01/29 01:12:39;;;;;;;25.05;17.90;;;;;;;;;;5072875;28;20148;-74
2023/01/29 01:15:05;;;;;;;25.77;17.48;;;;;;;;;;5072264;28;20388;-74
2023/01/29 01:17:31;;;;;;;24.20;17.38;;;;;;;;;;5072956;28;20040;-74
2023/01/29 01:19:57;;;;;;;23.90;17.38;;;;;;;;;;5073100;28;20088;-74
2023/01/29 01:22:23;;;;;;;23.60;17.52;;;;;;;;;;5075247;28;20114;-74
2023/01/29 01:24:49;;;;;;;26.45;18.35;;;;;;;;;;5057222;28;20408;-74
2023/01/29 01:27:18;;;;;;;25.60;17.73;;;;;;;;;;5072850;28;20056;-74
2023/01/29 01:29:44;;;;;;;24.48;18.10;;;;;;;;;;5091597;28;20040;-74
2023/01/29 01:32:10;;;;;;;24.98;18.90;;;;;;;;;;5093397;28;20052;-74
2023/01/29 01:34:36;;;;;;;22.75;17.05;;;;;;;;;;5093072;28;20102;-74
2023/01/29 01:37:02;;;;;;;24.02;17.70;;;;;;;;;;5091438;28;20048;-74
2023/01/29 01:39:28;;;;;;;25.88;18.45;;;;;;;;;;5090439;28;20486;-74
2023/01/29 01:41:54;;;;;;;23.50;16.98;;;;;;;;;;5075208;28;20051;-73
2023/01/29 01:44:39;;;;;;;24.70;18.42;;;;;;;;;;5072680;28;20056;-74
2023/01/29 01:47:05;;;;;;;25.55;18.27;;;;;;;;;;5054618;28;20414;-74
2023/01/29 01:49:31;;;;;;;25.05;18.08;;;;;;;;;;5057786;28;20048;-74
2023/01/29 01:51:59;;;;;;;26.77;18.67;;;;;;;;;;5092790;28;20040;-74
2023/01/29 01:54:30;;;;;;;29.20;19.08;;;;;;;;;;5090836;28;20497;-74
2023/01/29 01:57:07;;;;;;;26.25;19.52;;;;;;;;;;5092792;28;20119;-74
2023/01/29 01:59:35;;;;;;;25.75;17.75;;;;;;;;;;5091418;28;20052;-74
2023/01/29 02:10:18;;;;;;;23.73;17.92;;;;;;;;;;5083621;28;20498;-74
2023/01/29 02:12:45;;;;;;;23.95;17.75;;;;;;;;;;5080203;28;20044;-74
2023/01/29 02:15:11;;;;;;;27.45;18.35;;;;;;;;;;5076928;28;20044;-74
2023/01/29 02:17:37;;;;;;;25.08;18.33;;;;;;;;;;5072329;28;20095;-74
2023/01/29 02:20:25;;;;;;;25.30;18.35;;;;;;;;;;5087406;28;20044;-74
2023/01/29 02:22:55;;;;;;;26.52;17.88;;;;;;;;;;5092724;28;20101;-74
2023/01/29 02:25:24;;;;;;;23.15;18.25;;;;;;;;;;5081030;28;20048;-74
2023/01/29 02:28:08;;;;;;;24.45;17.80;;;;;;;;;;5081113;28;20060;-74
2023/01/29 02:30:41;;;;;;;28.73;19.88;;;;;;;;;;5096094;28;20036;-74
2023/01/29 02:33:13;;;;;;;27.48;19.23;;;;;;;;;;5065644;28;20051;-73
2023/01/29 02:35:42;;;;;;;24.70;18.33;;;;;;;;;;5075859;28;20043;-74
2023/01/29 02:38:23;;;;;;;26.25;18.67;;;;;;;;;;5075602;28;20501;-75
2023/01/29 02:40:52;;;;;;;27.00;19.15;;;;;;;;;;5075623;28;20448;-74
2023/01/29 02:43:18;;;;;;;25.35;18.98;;;;;;;;;;5075910;28;20057;-74
2023/01/29 02:45:58;;;;;;;28.75;19.15;;;;;;;;;;5076035;28;20437;-74
2023/01/29 02:48:25;;;;;;;25.85;19.90;;;;;;;;;;5078926;28;20553;-74
2023/01/29 02:50:58;;;;;;;25.90;19.80;;;;;;;;;;5094816;28;20371;-74
2023/01/29 02:53:27;;;;;;;28.95;18.88;;;;;;;;;;5095622;28;20478;-74
2023/01/29 02:55:59;;;;;;;28.63;19.73;;;;;;;;;;5095918;28;20131;-74
2023/01/29 02:58:46;;;;;;;28.10;18.65;;;;;;;;;;5094990;28;20051;-74
2023/01/29 03:01:33;;;;;;;26.45;18.60;;;;;;;;;;5095682;28;20040;-74
2023/01/29 03:04:02;;;;;;;26.00;19.02;;;;;;;;;;5084019;28;20139;-74
2023/01/29 03:06:28;;;;;;;26.65;19.88;;;;;;;;;;5077677;28;20044;-74
2023/01/29 03:08:59;;;;;;;26.20;18.90;;;;;;;;;;5076997;28;20487;-74
2023/01/29 03:11:27;;;;;;;26.40;18.88;;;;;;;;;;5075476;28;20044;-74
2023/01/29 03:13:57;;;;;;;27.08;19.25;;;;;;;;;;5075117;28;20045;-74
2023/01/29 03:16:26;;;;;;;28.02;19.02;;;;;;;;;;5083041;28;20035;-74
2023/01/29 03:18:55;;;;;;;23.63;19.30;;;;;;;;;;5086271;28;20047;-74
2023/01/29 03:32:31;;;;;;;25.73;17.38;;;;;;;;;;5074697;28;20049;-74
2023/01/29 03:35:00;;;;;;;26.50;19.30;;;;;;;;;;5074767;28;20059;-74
2023/01/29 03:37:33;;;;;;;23.10;17.65;;;;;;;;;;5074063;28;20050;-74
2023/01/29 03:40:00;;;;;;;25.95;18.17;;;;;;;;;;5077324;28;20494;-74
2023/01/29 03:42:29;;;;;;;26.20;18.08;;;;;;;;;;5074686;28;20094;-74
2023/01/29 03:44:59;;;;;;;25.05;19.00;;;;;;;;;;5074576;28;20045;-74
2023/01/29 03:47:42;;;;;;;29.30;18.67;;;;;;;;;;5074534;28;20120;-74
2023/01/29 03:50:17;;;;;;;29.67;19.73;;;;;;;;;;5077227;28;20123;-74
2023/01/29 03:53:03;;;;;;;25.50;18.60;;;;;;;;;;5074486;28;20043;-74
2023/01/29 03:55:34;;;;;;;24.45;17.83;;;;;;;;;;5043215;28;20045;-74
2023/01/29 03:58:05;;;;;;;23.90;17.70;;;;;;;;;;5076260;28;20045;-74
2023/01/29 04:00:34;;;;;;;28.77;18.85;;;;;;;;;;5089051;28;20054;-74
2023/01/29 04:03:03;;;;;;;24.35;17.85;;;;;;;;;;5084041;28;20564;-74
2023/01/29 04:05:33;;;;;;;26.45;18.20;;;;;;;;;;5073713;28;20041;-74
2023/01/29 04:08:02;;;;;;;27.60;19.40;;;;;;;;;;5091798;28;20068;-74
2023/01/29 04:10:29;;;;;;;25.88;18.60;;;;;;;;;;5092999;28;20040;-74
2023/01/29 04:13:00;;;;;;;26.67;19.08;;;;;;;;;;5092884;28;20542;-74
2023/01/29 04:15:28;;;;;;;26.58;18.40;;;;;;;;;;5092476;28;20056;-74
2023/01/29 04:17:55;;;;;;;24.20;19.15;;;;;;;;;;5093593;28;20417;-74
2023/01/29 04:20:22;;;;;;;26.95;19.23;;;;;;;;;;5086865;28;20048;-74
2023/01/29 04:22:49;;;;;;;28.77;20.40;;;;;;;;;;5082798;28;20049;-74
2023/01/29 04:25:16;;;;;;;26.13;19.08;;;;;;;;;;5073137;28;20047;-74
2023/01/29 04:27:43;;;;;;;27.00;19.65;;;;;;;;;;5073644;28;20047;-73
2023/01/29 04:30:21;;;;;;;27.30;19.83;;;;;;;;;;5081099;28;20051;-73
2023/01/29 04:32:53;;;;;;;28.45;20.05;;;;;;;;;;5090407;28;20054;-74
2023/01/29 04:35:25;;;;;;;26.13;20.27;;;;;;;;;;5092639;28;20055;-73
2023/01/29 04:38:00;;;;;;;25.95;19.58;;;;;;;;;;5080221;28;20037;-75
2023/01/29 04:40:46;;;;;;;24.63;19.00;;;;;;;;;;5091739;28;20043;-74
2023/01/29 04:43:20;;;;;;;26.98;19.25;;;;;;;;;;5082670;28;20053;-74
2023/01/29 04:45:46;;;;;;;25.50;19.65;;;;;;;;;;5077756;28;20051;-74
2023/01/29 04:48:24;;;;;;;29.70;20.17;;;;;;;;;;5088656;28;20036;-74
2023/01/29 04:50:53;;;;;;;26.55;19.55;;;;;;;;;;5092370;28;20565;-73
2023/01/29 04:53:23;;;;;;;28.55;20.80;;;;;;;;;;5092900;28;20128;-74
2023/01/29 04:55:59;;;;;;;27.33;20.63;;;;;;;;;;5093398;28;20397;-74
2023/01/29 04:59:03;;;;;;;26.30;20.50;;;;;;;;;;5092516;28;20498;-74
2023/01/29 05:01:32;;;;;;;27.73;20.08;;;;;;;;;;4989949;28;20042;-74
2023/01/29 05:03:59;;;;;;;26.83;20.08;;;;;;;;;;4989796;28;20058;-74
2023/01/29 05:06:26;;;;;;;26.77;20.55;;;;;;;;;;4978011;28;20525;-74
2023/01/29 05:08:53;;;;;;;29.55;21.08;;;;;;;;;;4972277;28;20051;-74
2023/01/29 05:11:19;;;;;;;25.38;19.80;;;;;;;;;;4972099;28;20098;-74
2023/01/29 05:13:47;;;;;;;29.05;21.83;;;;;;;;;;4972157;28;20224;-74
2023/01/29 05:16:25;;;;;;;33.15;23.33;;;;;;;;;;4987008;28;20050;-74
2023/01/29 05:18:51;;;;;;;28.88;22.08;;;;;;;;;;4990660;28;20519;-74
2023/01/29 05:21:18;;;;;;;28.75;22.23;;;;;;;;;;4979126;28;20122;-74
2023/01/29 05:23:56;;;;;;;30.92;23.13;;;;;;;;;;4975045;28;20046;-74
2023/01/29 05:29:07;;;;;;;30.98;22.90;;;;;;;;;;4991508;28;20428;-74
2023/01/29 05:31:33;;;;;;;29.38;21.02;;;;;;;;;;5012652;28;20044;-74
2023/01/29 05:33:59;;;;;;;29.75;23.00;;;;;;;;;;5092918;28;20086;-74
2023/01/29 05:36:26;;;;;;;30.10;22.95;;;;;;;;;;5093141;28;20051;-74
2023/01/29 05:38:52;;;;;;;32.63;24.33;;;;;;;;;;5091996;28;20097;-74
2023/01/29 05:41:18;;;;;;;30.33;23.52;;;;;;;;;;5092894;28;20051;-73
2023/01/29 05:43:44;;;;;;;29.95;24.30;;;;;;;;;;5093019;28;20085;-74
2023/01/29 05:46:10;;;;;;;30.58;24.60;;;;;;;;;;5079879;28;20048;-74
2023/01/29 05:48:36;;;;;;;33.80;25.80;;;;;;;;;;5076698;28;20073;-74
2023/01/29 05:51:02;;;;;;;32.05;24.80;;;;;;;;;;5091242;28;20090;-74
2023/01/29 05:53:28;;;;;;;31.48;24.80;;;;;;;;;;5087828;28;20093;-74
2023/01/29 05:55:56;;;;;;;31.08;25.33;;;;;;;;;;5075413;28;20052;-74
2023/01/29 05:58:22;;;;;;;36.63;27.05;;;;;;;;;;5072548;28;20049;-74
2023/01/29 06:00:48;;;;;;;32.03;25.88;;;;;;;;;;5072814;28;20123;-74
2023/01/29 06:03:15;;;;;;;34.38;26.65;;;;;;;;;;5055031;28;20487;-74
2023/01/29 06:05:41;;;;;;;35.97;27.23;;;;;;;;;;5056426;28;20095;-74
2023/01/29 06:08:08;;;;;;;38.60;28.27;;;;;;;;;;5056328;28;20048;-74
2023/01/29 06:10:34;;;;;;;33.25;26.30;;;;;;;;;;5056531;28;20056;-74
2023/01/29 06:13:00;;;;;;;34.50;25.13;;;;;;;;;;5058790;28;20444;-74
2023/01/29 06:15:26;;;;;;;37.10;27.52;;;;;;;;;;5055358;28;20415;-73
2023/01/29 06:17:55;;;;;;;34.03;25.73;;;;;;;;;;5056174;28;20410;-74
2023/01/29 06:20:21;;;;;;;31.65;24.25;;;;;;;;;;5056308;28;20415;-74
2023/01/29 06:22:47;;;;;;;32.08;24.85;;;;;;;;;;5056274;28;20041;-74
2023/01/29 06:25:14;;;;;;;36.35;26.13;;;;;;;;;;5056199;28;20057;-74
2023/01/29 06:27:40;;;;;;;31.30;26.25;;;;;;;;;;5055036;28;20045;-74
2023/01/29 06:30:06;;;;;;;32.17;26.15;;;;;;;;;;5059380;28;20052;-74
2023/01/29 06:32:33;;;;;;;35.05;25.77;;;;;;;;;;5054669;28;20049;-74
2023/01/29 06:34:59;;;;;;;32.08;25.08;;;;;;;;;;5055918;28;20036;-74
2023/01/29 06:37:25;;;;;;;32.55;26.15;;;;;;;;;;5055897;28;20049;-74
2023/01/29 06:39:51;;;;;;;33.22;26.50;;;;;;;;;;5055836;28;20083;-74
2023/01/29 06:42:17;;;;;;;30.67;25.95;;;;;;;;;;5061331;28;20052;-74
2023/01/29 06:44:44;;;;;;;31.08;24.73;;;;;;;;;;5068646;28;20508;-74
2023/01/29 06:47:10;;;;;;;31.63;25.52;;;;;;;;;;5070486;28;20056;-74
2023/01/29 06:49:36;;;;;;;32.30;24.98;;;;;;;;;;5062972;28;20040;-74
2023/01/29 06:52:02;;;;;;;31.65;25.35;;;;;;;;;;5060848;28;20041;-73
2023/01/29 06:54:28;;;;;;;29.90;24.17;;;;;;;;;;5062696;28;20059;-74
2023/01/29 06:56:55;;;;;;;30.42;23.88;;;;;;;;;;5065361;28;20064;-74
2023/01/29 06:59:21;;;;;;;28.88;24.25;;;;;;;;;;5064576;28;20048;-74
2023/01/29 07:01:47;;;;;;;31.17;24.70;;;;;;;;;;5074803;28;20036;-74
2023/01/29 07:04:13;;;;;;;29.45;23.40;;;;;;;;;;5080219;28;20048;-74
2023/01/29 07:06:39;;;;;;;34.13;25.30;;;;;;;;;;5095679;28;20047;-74
2023/01/29 07:09:05;;;;;;;31.75;24.92;;;;;;;;;;5095388;28;20043;-74
2023/01/29 07:11:33;;;;;;;29.42;23.45;;;;;;;;;;5095373;28;20047;-74
2023/01/29 07:13:59;;;;;;;34.03;25.08;;;;;;;;;;5094021;28;20055;-74
2023/01/29 07:16:25;;;;;;;34.35;25.80;;;;;;;;;;5078991;28;20044;-74
2023/01/29 07:18:51;;;;;;;32.13;23.98;;;;;;;;;;5057163;28;20129;-74
2023/01/29 07:21:18;;;;;;;31.63;23.95;;;;;;;;;;5077794;28;20045;-74
2023/01/29 07:23:44;;;;;;;34.03;24.98;;;;;;;;;;5074994;28;20068;-74
2023/01/29 07:26:11;;;;;;;30.15;24.48;;;;;;;;;;5074356;28;20044;-74
2023/01/29 07:28:37;;;;;;;32.10;25.38;;;;;;;;;;5074331;28;20052;-74
2023/01/29 07:31:04;;;;;;;29.95;24.58;;;;;;;;;;5075288;28;20044;-74
2023/01/29 07:33:30;;;;;;;30.52;23.58;;;;;;;;;;5094020;28;20036;-74
2023/01/29 07:35:56;;;;;;;30.27;24.48;;;;;;;;;;5093348;28;20044;-74
2023/01/29 07:38:22;;;;;;;33.05;24.98;;;;;;;;;;5085047;28;20051;-73
2023/01/29 07:40:49;;;;;;;33.72;25.63;;;;;;;;;;5087942;28;20498;-74
2023/01/29 07:43:15;;;;;;;31.00;24.75;;;;;;;;;;5087782;28;20259;-74
2023/01/29 07:45:42;;;;;;;31.48;24.20;;;;;;;;;;5077996;28;20498;-74
2023/01/29 07:48:10;;;;;;;31.70;24.90;;;;;;;;;;5073465;28;20040;-74
2023/01/29 07:50:36;;;;;;;31.33;26.08;;;;;;;;;;5073658;28;20043;-74
2023/01/29 07:53:02;;;;;;;32.75;26.25;;;;;;;;;;5074425;28;20045;-74
2023/01/29 07:55:28;;;;;;;35.58;26.40;;;;;;;;;;5087244;28;20047;-73
2023/01/29 07:57:55;;;;;;;31.38;24.50;;;;;;;;;;5076612;28;20106;-74
2023/01/29 08:00:21;;;;;;;31.90;24.90;;;;;;;;;;5081324;28;20044;-74
2023/01/29 08:02:47;;;;;;;32.60;25.75;;;;;;;;;;5083235;28;20542;-74
2023/01/29 08:05:13;;;;;;;32.58;25.48;;;;;;;;;;5084220;28;20048;-74
2023/01/29 08:07:39;;;;;;;31.45;25.98;;;;;;;;;;5086162;28;20052;-74
2023/01/29 08:10:06;;;;;;;33.25;25.25;;;;;;;;;;5078227;28;20048;-75
2023/01/29 08:12:32;;;;;;;31.85;25.45;;;;;;;;;;5076057;28;20091;-73
2023/01/29 08:14:58;;;;;;;31.25;24.13;;;;;;;;;;5087223;28;20036;-73
2023/01/29 08:17:24;;;;;;;32.25;24.90;;;;;;;;;;5089823;28;20498;-73
2023/01/29 08:19:50;;;;;;;34.42;26.65;;;;;;;;;;5087167;28;20040;-73
2023/01/29 08:22:16;;;;;;;33.58;25.27;;;;;;;;;;5076019;28;20074;-73
2023/01/29 08:24:42;;;;;;;30.13;24.50;;;;;;;;;;5088096;28;20414;-73
2023/01/29 08:27:08;;;;;;;31.92;24.23;;;;;;;;;;5086648;28;20051;-73
2023/01/29 08:29:34;;;;;;;36.63;26.52;;;;;;;;;;5083759;28;20048;-73
2023/01/29 08:32:00;;;;;;;30.90;25.17;;;;;;;;;;5084496;28;20040;-73
2023/01/29 08:34:27;;;;;;;32.97;26.13;;;;;;;;;;5088208;28;20101;-73
2023/01/29 08:36:53;;;;;;;33.33;25.83;;;;;;;;;;5088841;28;20089;-74
2023/01/29 08:39:19;;;;;;;35.40;27.25;;;;;;;;;;5089154;28;20043;-73
2023/01/29 08:41:45;;;;;;;36.00;27.40;;;;;;;;;;5088723;28;20094;-74
2023/01/29 08:44:11;;;;;;;35.78;27.17;;;;;;;;;;5092059;28;20525;-74
2023/01/29 08:46:39;;;;;;;34.60;27.13;;;;;;;;;;5078942;28;20411;-74
2023/01/29 08:49:06;;;;;;;34.05;24.80;;;;;;;;;;5078110;28;20486;-73
2023/01/29 08:51:32;;;;;;;36.05;25.80;;;;;;;;;;5089542;28;20091;-74
2023/01/29 08:53:58;;;;;;;31.13;24.52;;;;;;;;;;5072088;28;20074;-73
2023/01/29 08:56:24;;;;;;;35.80;25.90;;;;;;;;;;5085078;28;20051;-74
2023/01/29 08:58:51;;;;;;;32.33;25.60;;;;;;;;;;5057488;28;20509;-72
2023/01/29 09:01:17;;;;;;;31.23;24.98;;;;;;;;;;5088821;28;20524;-74
2023/01/29 09:03:43;;;;;;;32.63;26.08;;;;;;;;;;5076035;28;20124;-74
2023/01/29 09:06:10;;;;;;;31.77;24.35;;;;;;;;;;5077508;28;20439;-74
2023/01/29 09:08:36;;;;;;;33.63;25.65;;;;;;;;;;5087388;28;20044;-75
2023/01/29 09:11:02;;;;;;;35.83;27.10;;;;;;;;;;5090925;28;20541;-73
2023/01/29 09:13:29;;;;;;;32.72;25.80;;;;;;;;;;5083114;28;20048;-74
2023/01/29 09:15:58;;;;;;;33.25;25.10;;;;;;;;;;5084283;28;20048;-74
2023/01/29 09:18:24;;;;;;;31.70;25.13;;;;;;;;;;5075322;28;20049;-74
2023/01/29 09:20:50;;;;;;;33.70;25.15;;;;;;;;;;5084909;28;20047;-74
2023/01/29 09:23:16;;;;;;;32.58;24.27;;;;;;;;;;5079561;28;20036;-74
2023/01/29 09:25:42;;;;;;;32.72;24.58;;;;;;;;;;5085495;28;20111;-74
2023/01/29 09:28:09;;;;;;;32.83;25.17;;;;;;;;;;5079418;28;20084;-73
2023/01/29 09:30:36;;;;;;;30.80;24.65;;;;;;;;;;5082651;28;20040;-74
2023/01/29 09:33:03;;;;;;;30.88;23.98;;;;;;;;;;5082438;28;20076;-73
2023/01/29 09:35:29;;;;;;;33.17;25.48;;;;;;;;;;5082075;28;20053;-73
2023/01/29 09:37:55;;;;;;;29.33;23.90;;;;;;;;;;5088081;28;20048;-73
2023/01/29 09:40:21;;;;;;;30.95;25.52;;;;;;;;;;5089335;28;20078;-74
2023/01/29 09:42:50;;;;;;;35.40;26.90;;;;;;;;;;5075175;28;20060;-74
2023/01/29 09:45:23;;;;;;;31.67;25.13;;;;;;;;;;5076096;28;20091;-74
2023/01/29 09:47:49;;;;;;;29.70;24.85;;;;;;;;;;5083618;28;20040;-73
2023/01/29 09:50:25;;;;;;;32.45;25.80;;;;;;;;;;5077820;28;20047;-73
2023/01/29 09:53:10;;;;;;;30.88;24.40;;;;;;;;;;5086503;28;20040;-73
2023/01/29 09:55:39;;;;;;;33.42;24.52;;;;;;;;;;5073890;28;20055;-73
2023/01/29 09:58:11;;;;;;;33.00;24.77;;;;;;;;;;5074687;28;20379;-73
2023/01/29 10:00:40;;;;;;;31.45;23.92;;;;;;;;;;5073367;28;20107;-74
2023/01/29 10:03:09;;;;;;;31.98;24.10;;;;;;;;;;5047866;28;20053;-74
2023/01/29 10:05:58;;;;;;;33.00;24.60;;;;;;;;;;5064149;28;20059;-74
2023/01/29 10:08:24;;;;;;;31.23;24.15;;;;;;;;;;5045996;28;20049;-74
2023/01/29 10:11:04;;;;;;;30.33;23.85;;;;;;;;;;5054537;28;20075;-74
2023/01/29 10:13:44;;;;;;;33.97;25.20;;;;;;;;;;5067803;28;20048;-74
2023/01/29 10:16:29;;;;;;;31.67;24.98;;;;;;;;;;5052615;28;20116;-73
2023/01/29 10:18:58;;;;;;;31.88;24.73;;;;;;;;;;5062691;28;20469;-73
2023/01/29 10:21:24;;;;;;;33.55;26.13;;;;;;;;;;5063968;28;20044;-73
2023/01/29 10:23:52;;;;;;;30.75;25.50;;;;;;;;;;5061191;28;20048;-74
2023/01/29 10:26:20;;;;;;;29.98;25.83;;;;;;;;;;5066060;28;20043;-73
2023/01/29 10:28:49;;;;;;;31.15;24.85;;;;;;;;;;5062501;28;20407;-74
2023/01/29 10:31:19;;;;;;;30.95;24.52;;;;;;;;;;5055189;28;20048;-74
2023/01/29 10:33:48;;;;;;;33.17;25.92;;;;;;;;;;5060019;28;20041;-73
2023/01/29 10:36:17;;;;;;;32.10;25.63;;;;;;;;;;5052540;28;20484;-74
2023/01/29 10:38:44;;;;;;;33.45;26.15;;;;;;;;;;5061192;28;20109;-73
2023/01/29 10:41:10;;;;;;;32.55;26.63;;;;;;;;;;5070909;28;20044;-73
2023/01/29 10:43:42;;;;;;;31.38;26.65;;;;;;;;;;5071309;28;20048;-73
2023/01/29 10:46:22;;;;;;;31.33;26.17;;;;;;;;;;5069623;28;20041;-73
2023/01/29 10:49:08;;;;;;;34.10;26.25;;;;;;;;;;5064835;28;20389;-73
2023/01/29 10:51:43;;;;;;;35.30;26.45;;;;;;;;;;5054979;28;20053;-73
2023/01/29 10:54:12;;;;;;;35.63;26.15;;;;;;;;;;5063703;28;20427;-73
2023/01/29 10:56:44;;;;;;;33.60;26.80;;;;;;;;;;5074298;28;20383;-73
2023/01/29 10:59:28;;;;;;;31.70;26.13;;;;;;;;;;5074623;28;20490;-73
2023/01/29 11:01:58;;;;;;;33.80;27.65;;;;;;;;;;5069398;28;20544;-73
2023/01/29 11:04:26;;;;;;;34.38;26.90;;;;;;;;;;5075064;28;20067;-73
2023/01/29 11:06:52;;;;;;;34.17;27.27;;;;;;;;;;5094616;28;20059;-74
2023/01/29 11:09:21;;;;;;;33.78;27.98;;;;;;;;;;5094540;28;20105;-73
2023/01/29 11:11:49;;;;;;;34.63;26.17;;;;;;;;;;5093933;28;20046;-74
2023/01/29 11:14:18;;;;;;;35.35;27.20;;;;;;;;;;5094193;28;20410;-72
2023/01/29 11:16:46;;;;;;;32.72;26.88;;;;;;;;;;5094219;28;20498;-74
2023/01/29 11:19:13;;;;;;;33.00;27.33;;;;;;;;;;5086796;28;20076;-73
2023/01/29 11:21:52;;;;;;;32.70;27.58;;;;;;;;;;5081236;28;20411;-74
2023/01/29 11:24:18;;;;;;;31.83;26.10;;;;;;;;;;5078194;28;20044;-75
2023/01/29 11:26:46;;;;;;;33.35;25.55;;;;;;;;;;5083557;28;20493;-74
2023/01/29 11:29:32;;;;;;;35.00;26.63;;;;;;;;;;5089428;28;20078;-73
2023/01/29 11:31:58;;;;;;;35.53;26.83;;;;;;;;;;5091706;28;20047;-73
2023/01/29 11:34:32;;;;;;;34.17;26.10;;;;;;;;;;5093356;28;20043;-73
2023/01/29 11:36:59;;;;;;;31.38;26.98;;;;;;;;;;5088415;28;20093;-73
2023/01/29 11:39:26;;;;;;;33.92;26.90;;;;;;;;;;5091717;28;20055;-73
2023/01/29 11:41:55;;;;;;;34.88;26.75;;;;;;;;;;5091347;28;20131;-73
2023/01/29 11:44:27;;;;;;;34.50;27.83;;;;;;;;;;5094168;28;20164;-73
2023/01/29 11:46:52;;;;;;;;;;;;;;;;;;5078136;28;20087;-72
2023/01/29 11:49:25;;;;;;;32.78;25.92;;;;;;;;;;5078962;28;19963;-73
2023/01/29 11:51:52;;;;;;;34.40;28.02;;;;;;;;;;5088579;28;20052;-73
2023/01/29 11:54:19;;;;;;;34.13;28.45;;;;;;;;;;5084778;28;20049;-73
2023/01/29 11:56:46;;;;;;;36.10;28.20;;;;;;;;;;5079251;28;20424;-74
2023/01/29 11:59:27;;;;;;;34.15;27.23;;;;;;;;;;5084643;28;20047;-73
2023/01/29 12:01:53;;;;;;;34.40;27.58;;;;;;;;;;5079817;28;20083;-74
2023/01/29 12:04:21;;;;;;;34.60;28.10;;;;;;;;;;5092842;28;20060;-73
2023/01/29 12:06:50;;;;;;;38.47;28.63;;;;;;;;;;5074095;28;20063;-73
2023/01/29 12:09:18;;;;;;;35.65;29.38;;;;;;;;;;5080793;28;20075;-73
2023/01/29 12:11:44;;;;;;;36.60;26.58;;;;;;;;;;5076283;28;20083;-73
2023/01/29 12:14:27;;;;;;;38.60;28.83;;;;;;;;;;5080283;28;20071;-73
2023/01/29 12:16:56;;;;;;;38.63;27.90;;;;;;;;;;5081662;28;20044;-74
2023/01/29 12:19:36;;;;;;;36.50;28.52;;;;;;;;;;5083735;28;20375;-73
2023/01/29 12:22:21;;;;;;;32.72;26.27;;;;;;;;;;5068384;28;20052;-74
2023/01/29 12:24:51;;;;;;;35.90;27.95;;;;;;;;;;5079511;28;20527;-73
2023/01/29 12:27:20;;;;;;;33.95;27.95;;;;;;;;;;5076345;28;20040;-74
2023/01/29 12:29:51;;;;;;;34.22;26.48;;;;;;;;;;5087283;28;20055;-73
2023/01/29 12:32:23;;;;;;;36.08;29.33;;;;;;;;;;5079126;28;20149;-73
2023/01/29 12:34:59;;;;;;;36.20;27.73;;;;;;;;;;5080800;28;20045;-73
2023/01/29 12:37:27;;;;;;;36.05;28.35;;;;;;;;;;5080923;28;20481;-74
2023/01/29 12:39:53;;;;;;;37.33;29.10;;;;;;;;;;5079257;28;20448;-73
2023/01/29 12:42:21;;;;;;;39.65;29.63;;;;;;;;;;5084097;28;20044;-73
2023/01/29 12:44:56;;;;;;;36.13;29.02;;;;;;;;;;5085858;28;20079;-75
2023/01/29 12:47:35;;;;;;;38.78;29.27;;;;;;;;;;5082296;28;20048;-74
2023/01/29 12:50:21;;;;;;;41.10;28.45;;;;;;;;;;5085437;28;20036;-74
2023/01/29 12:52:47;;;;;;;36.40;28.98;;;;;;;;;;5085166;28;20040;-74
2023/01/29 12:55:17;;;;;;;39.15;29.52;;;;;;;;;;5071423;28;20493;-73
2023/01/29 12:57:43;;;;;;;39.17;30.23;;;;;;;;;;5075192;28;20047;-73
2023/01/29 13:00:13;;;;;;;39.20;29.45;;;;;;;;;;5086969;28;20036;-73
2023/01/29 13:02:44;;;;;;;37.72;28.80;;;;;;;;;;5083205;28;20559;-73
2023/01/29 13:05:10;;;;;;;;;;;;;;;;;;5076337;28;20063;-73
2023/01/29 13:07:39;;;;;;;41.63;28.85;;;;;;;;;;5085376;28;20307;-73
2023/01/29 13:10:13;;;;;;;36.05;27.63;;;;;;;;;;5079464;28;20406;-73
2023/01/29 13:12:44;;;;;;;38.30;29.35;;;;;;;;;;5090102;28;20044;-73
2023/01/29 13:15:20;;;;;;;40.22;28.63;;;;;;;;;;5082928;28;20036;-74
2023/01/29 13:17:48;;;;;;;36.38;28.02;;;;;;;;;;5076739;28;20052;-73
2023/01/29 13:20:22;;;;;;;37.92;28.25;;;;;;;;;;5079466;28;20052;-73
2023/01/29 13:22:50;;;;;;;40.92;30.90;;;;;;;;;;5080278;28;20052;-73
2023/01/29 13:25:16;;;;;;;36.65;28.48;;;;;;;;;;5090698;28;20040;-74
2023/01/29 13:27:44;;;;;;;37.25;28.85;;;;;;;;;;5090845;28;20048;-74
2023/01/29 13:30:23;;;;;;;37.83;29.95;;;;;;;;;;5084062;28;20048;-74
2023/01/29 13:32:51;;;;;;;38.75;28.92;;;;;;;;;;5085972;28;20493;-74
2023/01/29 13:35:18;;;;;;;39.30;28.92;;;;;;;;;;5084333;28;20040;-74
2023/01/29 13:37:52;;;;;;;36.15;28.10;;;;;;;;;;5075754;28;20051;-74
2023/01/29 13:40:28;;;;;;;34.42;27.98;;;;;;;;;;5091574;28;20052;-74
2023/01/29 13:42:55;;;;;;;39.00;30.20;;;;;;;;;;5076908;28;20048;-73
2023/01/29 13:45:23;;;;;;;38.05;28.45;;;;;;;;;;5088816;28;20109;-73
2023/01/29 13:47:50;;;;;;;35.08;28.02;;;;;;;;;;5091318;28;20075;-73
2023/01/29 13:50:23;;;;;;;40.47;29.08;;;;;;;;;;5086293;28;20036;-74
2023/01/29 13:52:54;;;;;;;37.78;29.60;;;;;;;;;;5084756;28;20040;-73
2023/01/29 13:55:30;;;;;;;42.57;29.63;;;;;;;;;;5091607;28;20044;-73
2023/01/29 13:57:56;;;;;;;39.80;29.33;;;;;;;;;;5081106;28;20101;-73
2023/01/29 14:00:29;;;;;;;39.00;29.80;;;;;;;;;;5087859;28;20482;-73
2023/01/29 14:03:10;;;;;;;36.97;28.13;;;;;;;;;;5081326;28;20060;-73
2023/01/29 14:05:54;;;;;;;38.08;29.73;;;;;;;;;;5079335;28;20072;-73
2023/01/29 14:08:36;;;;;;;39.63;29.75;;;;;;;;;;5088101;28;20044;-73
2023/01/29 14:11:14;;;;;;;40.47;29.05;;;;;;;;;;5071776;28;20079;-74
2023/01/29 14:13:47;;;;;;;38.65;30.83;;;;;;;;;;5071661;28;20526;-73
2023/01/29 14:16:13;;;;;;;41.25;28.67;;;;;;;;;;5080517;28;20069;-74
2023/01/29 14:19:06;;;;;;;39.63;29.30;;;;;;;;;;5079651;28;20043;-72
2023/01/29 14:21:33;;;;;;;36.22;28.63;;;;;;;;;;5082847;28;20052;-74
2023/01/29 14:24:09;;;;;;;38.78;28.67;;;;;;;;;;5080502;28;20525;-73
2023/01/29 14:26:42;;;;;;;40.95;32.35;;;;;;;;;;5092429;28;20051;-74
2023/01/29 14:29:20;;;;;;;40.60;30.15;;;;;;;;;;5095238;28;20529;-73
2023/01/29 14:32:00;;;;;;;42.15;31.52;;;;;;;;;;5095150;28;20047;-74
2023/01/29 14:34:31;;;;;;;43.60;31.83;;;;;;;;;;5094872;28;20115;-74
2023/01/29 14:37:00;;;;;;;42.75;32.85;;;;;;;;;;5083947;28;20090;-74
2023/01/29 14:39:34;;;;;;;45.15;34.25;;;;;;;;;;5091895;28;20036;-74
2023/01/29 14:42:02;;;;;;;42.13;32.50;;;;;;;;;;5077526;28;20514;-74
2023/01/29 14:44:44;;;;;;;40.95;32.25;;;;;;;;;;5079525;28;20051;-73
2023/01/29 14:47:39;;;;;;;43.50;32.03;;;;;;;;;;5093104;28;20090;-73
2023/01/29 14:50:24;;;;;;;41.22;31.98;;;;;;;;;;5009371;28;20058;-74
2023/01/29 14:52:52;;;;;;;41.92;32.03;;;;;;;;;;5011680;28;20050;-74
2023/01/29 14:55:28;;;;;;;46.67;32.72;;;;;;;;;;4994998;28;20220;-73
2023/01/29 14:57:57;;;;;;;46.67;33.95;;;;;;;;;;5012120;28;20045;-73
2023/01/29 15:00:49;;;;;;;46.33;34.83;;;;;;;;;;5003581;28;20058;-73
2023/01/29 15:03:31;;;;;;;45.20;33.60;;;;;;;;;;5009179;28;20045;-74
2023/01/29 15:05:58;;;;;;;44.92;33.63;;;;;;;;;;5012615;28;20058;-73